Time;durP1;ratioP1;P1;durP2;ratioP2;P2;SDS_P1;SDS_P2;PMS_P1;PMS_P2;Temp;Humidity;BMP_temperature;BMP_pressure;BME280_temperature;BME280_humidity;BME280_pressure;Samples;Min_cycle;Max_cycle;Signal;HPM_P1;HPM_P2
2022/03/19 00:00:45;;;;;;;43.88;17.92;;;;;;;-1.11;60.34;103195.19;5008624;28;20474;-77
2022/03/19 00:03:12;;;;;;;30.98;18.92;;;;;;;-1.17;60.74;103207.50;5008854;28;20516;-76
2022/03/19 00:05:38;;;;;;;24.80;16.75;;;;;;;-1.30;60.67;103205.47;4998743;28;20026;-76
2022/03/19 00:08:04;;;;;;;29.55;19.67;;;;;;;-1.24;60.85;103205.13;4998493;28;20177;-77
2022/03/19 00:10:55;;;;;;;29.92;19.42;;;;;;;-1.20;60.30;103190.09;5008921;28;20108;-77
2022/03/19 00:13:21;;;;;;;30.25;17.58;;;;;;;-0.75;58.71;103186.44;5009469;28;20041;-76
2022/03/19 00:16:27;;;;;;;37.17;23.83;;;;;;;-0.96;58.86;103196.63;5008615;28;20049;-76
2022/03/19 00:19:20;;;;;;;27.08;14.90;;;;;;;-1.29;60.25;103190.19;5010209;28;20037;-77
2022/03/19 00:21:52;;;;;;;28.33;18.03;;;;;;;-0.82;59.37;103189.22;5009777;28;20489;-79
2022/03/19 00:24:17;;;;;;;38.63;18.00;;;;;;;-1.16;59.82;103170.69;5008420;28;20049;-78
2022/03/19 00:26:43;;;;;;;30.15;15.10;;;;;;;-1.38;60.23;103170.38;5008436;28;20108;-78
2022/03/19 00:29:11;;;;;;;34.85;19.15;;;;;;;-0.99;59.55;103178.28;5008338;28;20549;-77
2022/03/19 00:31:37;;;;;;;26.85;17.05;;;;;;;-1.04;59.37;103173.50;5015955;28;20042;-78
2022/03/19 00:34:02;;;;;;;30.30;17.83;;;;;;;-1.02;59.30;103170.28;4996289;28;20050;-78
2022/03/19 00:36:28;;;;;;;44.22;19.23;;;;;;;-0.83;59.04;103159.97;5006809;28;20042;-78
2022/03/19 00:38:54;;;;;;;32.97;17.85;;;;;;;-1.04;59.75;103170.91;5009901;28;20033;-77
2022/03/19 00:41:20;;;;;;;28.77;17.20;;;;;;;-1.28;60.54;103173.94;5011530;28;20050;-77
2022/03/19 00:43:46;;;;;;;30.33;17.55;;;;;;;-1.06;59.55;103165.59;5008477;28;20084;-77
2022/03/19 00:46:12;;;;;;;27.73;16.75;;;;;;;-1.09;59.30;103166.25;5003400;28;20073;-78
2022/03/19 00:48:38;;;;;;;22.58;16.55;;;;;;;-1.14;60.15;103164.91;5009808;28;20048;-78
2022/03/19 00:51:03;;;;;;;28.25;16.83;;;;;;;-1.41;60.82;103160.69;5007477;28;20025;-77
2022/03/19 00:53:28;;;;;;;28.27;15.75;;;;;;;-1.35;60.64;103160.38;5009886;28;20025;-79
2022/03/19 00:55:54;;;;;;;25.63;16.00;;;;;;;-1.23;60.07;103152.88;5009418;28;20057;-78
2022/03/19 00:58:20;;;;;;;27.85;16.67;;;;;;;-1.40;60.78;103167.66;5008969;28;20479;-78
2022/03/19 01:00:45;;;;;;;30.95;17.92;;;;;;;-1.57;61.54;103158.38;5008788;28;20042;-78
2022/03/19 01:03:11;;;;;;;30.30;17.60;;;;;;;-1.68;62.78;103158.13;4997882;28;20026;-77
2022/03/19 01:05:37;;;;;;;24.73;16.17;;;;;;;-1.62;61.58;103167.31;5008867;28;20030;-78
2022/03/19 01:08:03;;;;;;;21.55;15.02;;;;;;;-1.66;61.39;103162.66;5007836;28;20478;-78
2022/03/19 01:10:30;;;;;;;23.48;15.38;;;;;;;-1.51;61.34;103171.81;5002102;28;20061;-78
2022/03/19 01:12:57;;;;;;;27.30;15.88;;;;;;;-1.34;60.89;103157.91;5004824;28;20042;-78
2022/03/19 01:15:23;;;;;;;38.70;18.27;;;;;;;-1.16;60.48;103169.03;5009285;28;20046;-79
2022/03/19 01:17:51;;;;;;;21.27;14.32;;;;;;;-1.44;61.13;103157.84;5011702;28;20030;-79
2022/03/19 01:20:17;;;;;;;30.30;15.88;;;;;;;-1.60;61.84;103157.19;5010957;28;20045;-78
2022/03/19 01:22:44;;;;;;;23.58;14.88;;;;;;;-1.85;62.61;103152.31;5010391;28;20042;-77
2022/03/19 01:25:11;;;;;;;21.20;14.05;;;;;;;-1.51;61.65;103160.59;5010270;28;20096;-78
2022/03/19 01:27:39;;;;;;;26.60;13.30;;;;;;;-1.61;60.66;103151.13;5012218;28;20394;-79
2022/03/19 01:30:06;;;;;;;23.73;12.90;;;;;;;-1.62;60.81;103157.00;5000806;28;20034;-79
2022/03/19 01:32:32;;;;;;;22.48;12.07;;;;;;;-1.60;60.80;103152.91;5010306;28;20037;-78
2022/03/19 01:34:59;;;;;;;30.50;11.32;;;;;;;-1.92;62.29;103148.25;5009107;28;20057;-78
2022/03/19 01:37:25;;;;;;;23.60;13.07;;;;;;;-1.88;62.84;103152.00;5012550;28;20042;-78
2022/03/19 01:39:53;;;;;;;29.90;17.20;;;;;;;-1.94;63.29;103139.47;5011720;28;20049;-77
2022/03/19 01:42:24;;;;;;;24.05;14.82;;;;;;;-1.85;62.94;103149.75;5014446;28;20124;-78
2022/03/19 01:44:50;;;;;;;27.45;14.48;;;;;;;-1.96;63.31;103152.97;5016242;28;20095;-78
2022/03/19 01:47:16;;;;;;;31.17;17.20;;;;;;;-1.91;63.06;103133.72;5017172;28;20494;-78
2022/03/19 01:49:41;;;;;;;36.60;16.58;;;;;;;-1.95;63.73;103159.91;5010245;28;20045;-78
2022/03/19 01:52:08;;;;;;;22.92;15.20;;;;;;;-2.07;63.33;103151.94;5011582;28;20054;-78
2022/03/19 01:54:37;;;;;;;28.52;12.35;;;;;;;-2.10;63.41;103153.31;5011586;28;20045;-76
2022/03/19 01:57:05;;;;;;;19.42;12.15;;;;;;;-2.17;63.03;103163.00;5002465;28;20026;-78
2022/03/19 01:59:36;;;;;;;23.63;12.00;;;;;;;-2.35;63.28;103153.53;5041915;28;20029;-78
2022/03/19 02:02:03;;;;;;;24.95;13.18;;;;;;;-2.51;63.75;103156.25;5005772;28;20046;-77
2022/03/19 02:04:29;;;;;;;22.75;14.40;;;;;;;-2.48;63.90;103163.38;5024842;28;20527;-78
2022/03/19 02:06:56;;;;;;;22.63;12.48;;;;;;;-2.57;64.22;103155.69;5006198;28;20053;-77
2022/03/19 02:09:34;;;;;;;22.50;14.30;;;;;;;-2.41;64.18;103166.69;5012606;28;20470;-77
2022/03/19 02:12:00;;;;;;;30.65;12.32;;;;;;;-2.16;64.08;103144.22;5012229;28;20117;-77
2022/03/19 02:14:29;;;;;;;17.98;11.52;;;;;;;-1.65;62.16;103159.31;5011701;28;20045;-77
2022/03/19 02:16:55;;;;;;;25.60;14.13;;;;;;;-1.80;62.71;103153.66;5011364;28;20049;-76
2022/03/19 02:19:20;;;;;;;21.50;13.73;;;;;;;-2.10;63.29;103161.03;5011351;28;20416;-77
2022/03/19 02:21:48;;;;;;;20.63;12.00;;;;;;;-2.34;63.72;103152.78;5011204;28;20390;-77
2022/03/19 02:27:08;;;;;;;16.75;11.48;;;;;;;-2.16;62.91;103157.09;5011798;28;20433;-78
2022/03/19 02:29:38;;;;;;;22.95;13.85;;;;;;;-2.04;61.69;103153.88;5018604;28;20131;-78
2022/03/19 02:32:06;;;;;;;20.60;11.73;;;;;;;-2.26;62.09;103148.38;5010834;28;20041;-79
2022/03/19 02:34:34;;;;;;;17.50;11.32;;;;;;;-2.06;60.89;103147.69;5010189;28;20045;-78
2022/03/19 02:37:01;;;;;;;16.60;11.40;;;;;;;-1.92;60.24;103149.88;5011163;28;20176;-78
2022/03/19 02:39:30;;;;;;;20.05;12.13;;;;;;;-1.82;60.25;103157.75;5011264;28;20042;-78
2022/03/19 02:41:58;;;;;;;22.02;10.73;;;;;;;-1.89;60.77;103150.19;5011645;28;20057;-77
2022/03/19 02:44:23;;;;;;;21.65;12.65;;;;;;;-1.60;60.26;103157.19;5009466;28;20034;-78
2022/03/19 02:46:51;;;;;;;17.50;11.15;;;;;;;-1.73;60.58;103139.69;5009901;28;20116;-77
2022/03/19 02:49:17;;;;;;;20.50;12.07;;;;;;;-1.42;59.50;103155.41;5010585;28;20061;-78
2022/03/19 02:51:45;;;;;;;20.20;12.70;;;;;;;-1.39;59.34;103148.88;5011107;28;20046;-79
2022/03/19 02:54:13;;;;;;;13.85;10.90;;;;;;;-1.63;60.47;103134.63;5000633;28;20057;-78
2022/03/19 02:56:40;;;;;;;19.40;11.80;;;;;;;-1.50;59.90;103163.34;5010506;28;20084;-78
2022/03/19 02:59:21;;;;;;;17.15;11.68;;;;;;;-1.51;60.20;103155.47;5010102;28;20041;-78
2022/03/19 03:01:48;;;;;;;21.88;14.25;;;;;;;-1.31;59.93;103155.66;5011130;28;20052;-78
2022/03/19 03:04:14;;;;;;;22.25;13.73;;;;;;;-1.38;59.64;103153.28;5011839;28;20108;-78
2022/03/19 03:06:42;;;;;;;17.33;10.40;;;;;;;-1.61;59.70;103158.84;5009011;28;20037;-77
2022/03/19 03:09:09;;;;;;;19.65;13.45;;;;;;;-1.95;60.10;103152.19;5010473;28;20156;-78
2022/03/19 03:11:36;;;;;;;19.50;12.15;;;;;;;-1.92;59.96;103149.88;5011372;28;20034;-78
2022/03/19 03:14:52;;;;;;;20.58;11.60;;;;;;;-1.86;59.41;103153.06;5008836;28;20034;-78
2022/03/19 03:17:18;;;;;;;27.73;11.38;;;;;;;-1.57;58.32;103140.34;5011325;28;20049;-79
2022/03/19 03:19:43;;;;;;;16.73;12.15;;;;;;;-1.54;57.88;103148.34;5007841;28;20038;-78
2022/03/19 03:22:09;;;;;;;18.92;10.10;;;;;;;-1.21;57.41;103152.25;5001978;28;20130;-79
2022/03/19 03:24:35;;;;;;;17.23;12.10;;;;;;;-1.71;58.07;103136.50;5008581;28;20034;-77
2022/03/19 03:27:00;;;;;;;16.35;11.95;;;;;;;-1.64;57.89;103150.84;5008858;28;20425;-77
2022/03/19 03:29:26;;;;;;;18.05;12.13;;;;;;;-1.69;58.23;103144.34;5009957;28;20116;-78
2022/03/19 03:31:51;;;;;;;19.70;12.63;;;;;;;-1.79;59.00;103152.88;5008703;28;20034;-77
2022/03/19 03:34:17;;;;;;;21.80;11.02;;;;;;;-1.96;59.30;103125.56;5009544;28;20053;-78
2022/03/19 03:36:43;;;;;;;20.27;14.25;;;;;;;-1.95;59.47;103137.66;5001463;28;20109;-74
2022/03/19 03:39:08;;;;;;;17.92;11.02;;;;;;;-1.96;60.12;103147.81;5000857;28;20033;-77
2022/03/19 03:41:34;;;;;;;23.08;12.85;;;;;;;-1.96;61.95;103142.66;5009277;28;21110;-77
2022/03/19 03:43:59;;;;;;;22.80;12.75;;;;;;;-2.13;63.62;103125.63;5010131;28;20045;-77
2022/03/19 03:46:25;;;;;;;20.35;13.05;;;;;;;-2.01;63.91;103149.06;5023492;28;20042;-77
2022/03/19 03:48:51;;;;;;;16.85;12.48;;;;;;;-2.03;63.50;103146.31;5026920;28;20484;-78
2022/03/19 03:51:16;;;;;;;17.25;11.85;;;;;;;-2.06;62.89;103150.25;5007566;28;20031;-78
2022/03/19 03:53:47;;;;;;;13.38;11.73;;;;;;;-2.02;62.03;103140.41;5007679;28;20109;-79
2022/03/19 03:56:13;;;;;;;22.70;12.38;;;;;;;-1.99;61.61;103153.56;5021036;28;20052;-76
2022/03/19 03:58:40;;;;;;;20.10;10.88;;;;;;;-2.02;60.52;103147.22;5027408;28;20053;-77
2022/03/19 04:01:07;;;;;;;15.00;8.25;;;;;;;-2.04;60.84;103157.34;5010317;28;20493;-77
2022/03/19 04:03:33;;;;;;;15.93;10.80;;;;;;;-1.69;59.84;103152.06;5005020;28;20033;-77
2022/03/19 04:06:22;;;;;;;17.63;11.20;;;;;;;-1.78;59.97;103148.63;5009414;28;20350;-77
2022/03/19 04:08:48;;;;;;;14.55;9.60;;;;;;;-1.88;59.69;103149.44;5010807;28;20474;-78
2022/03/19 04:11:13;;;;;;;17.42;10.07;;;;;;;-1.97;59.88;103152.06;5009951;28;20065;-78
2022/03/19 04:13:39;;;;;;;13.68;9.52;;;;;;;-1.94;60.49;103148.88;5008692;28;20088;-76
2022/03/19 04:16:04;;;;;;;19.48;11.18;;;;;;;-1.74;59.67;103148.16;5009171;28;20409;-77
2022/03/19 04:18:41;;;;;;;18.42;10.82;;;;;;;-1.68;59.43;103161.63;5002106;28;20394;-77
2022/03/19 04:21:06;;;;;;;20.40;10.80;;;;;;;-1.82;59.52;103167.13;5002524;28;20031;-77
2022/03/19 04:23:31;;;;;;;18.30;10.38;;;;;;;-1.70;59.24;103164.03;5009872;28;20025;-76
2022/03/19 04:26:03;;;;;;;20.27;12.65;;;;;;;-1.70;59.40;103163.13;5009539;28;20042;-77
2022/03/19 04:28:29;;;;;;;27.45;11.57;;;;;;;-1.86;59.88;103165.91;5008472;28;20474;-78
2022/03/19 04:30:54;;;;;;;17.60;11.00;;;;;;;-2.01;60.16;103161.91;5008653;28;20053;-77
2022/03/19 04:33:21;;;;;;;15.18;10.48;;;;;;;-1.76;60.01;103157.41;4996666;28;20478;-78
2022/03/19 04:38:30;;;;;;;20.73;12.93;;;;;;;-2.18;60.60;103156.06;5011302;28;20033;-78
2022/03/19 04:40:57;;;;;;;21.63;10.05;;;;;;;-1.71;60.12;103159.66;5009801;28;20050;-76
2022/03/19 04:43:23;;;;;;;18.70;12.27;;;;;;;-1.88;60.09;103175.16;5001241;28;20074;-78
2022/03/19 04:45:49;;;;;;;19.00;11.15;;;;;;;-1.81;60.28;103163.78;5005798;28;20470;-77
2022/03/19 04:48:14;;;;;;;16.63;10.30;;;;;;;-1.80;60.41;103166.50;5000925;28;20474;-77
2022/03/19 04:50:42;;;;;;;16.55;9.45;;;;;;;-1.91;60.91;103169.72;4987641;28;20026;-77
2022/03/19 04:53:09;;;;;;;16.13;11.57;;;;;;;-1.64;60.28;103179.16;5007688;28;20049;-77
2022/03/19 04:55:37;;;;;;;20.23;10.57;;;;;;;-1.66;60.14;103177.19;5010115;28;20051;-77
2022/03/19 04:58:03;;;;;;;20.33;11.02;;;;;;;-2.04;61.16;103174.47;5011211;28;20052;-77
2022/03/19 05:00:29;;;;;;;18.42;10.85;;;;;;;-2.00;60.55;103167.19;5011207;28;20044;-77
2022/03/19 05:02:54;;;;;;;21.90;10.68;;;;;;;-1.73;59.92;103178.31;5010820;28;20034;-76
2022/03/19 05:05:24;;;;;;;14.45;9.02;;;;;;;-1.86;60.17;103172.75;5012141;28;20033;-78
2022/03/19 05:07:59;;;;;;;15.95;11.10;;;;;;;-2.09;60.58;103166.31;5032842;28;20037;-77
2022/03/19 05:13:09;;;;;;;19.55;9.70;;;;;;;-1.95;60.19;103190.78;5011295;28;20441;-77
2022/03/19 05:15:35;;;;;;;18.27;11.43;;;;;;;-2.01;60.78;103190.22;5013526;28;20070;-77
2022/03/19 05:18:01;;;;;;;21.77;12.13;;;;;;;-1.98;60.44;103186.25;5010889;28;20056;-76
2022/03/19 05:20:28;;;;;;;20.95;10.38;;;;;;;-2.22;60.36;103200.25;5013790;28;20461;-79
2022/03/19 05:22:54;;;;;;;19.20;11.30;;;;;;;-2.34;61.06;103192.25;5008726;28;20493;-78
2022/03/19 05:25:20;;;;;;;17.05;9.85;;;;;;;-2.25;61.42;103197.34;5009381;28;20069;-78
2022/03/19 05:27:45;;;;;;;19.35;11.95;;;;;;;-2.11;60.29;103206.41;5010822;28;20033;-78
2022/03/19 05:30:11;;;;;;;15.23;9.85;;;;;;;-2.30;61.02;103189.97;4995359;28;20026;-78
2022/03/19 05:32:37;;;;;;;25.02;12.35;;;;;;;-2.26;61.16;103213.56;5013447;28;20026;-78
2022/03/19 05:35:04;;;;;;;17.17;10.40;;;;;;;-2.11;60.86;103216.69;5012179;28;20509;-79
2022/03/19 05:37:30;;;;;;;19.50;11.02;;;;;;;-2.08;60.94;103201.56;5012570;28;20056;-78
2022/03/19 05:40:34;;;;;;;28.35;10.77;;;;;;;-2.29;60.73;103218.41;5011800;28;20038;-78
2022/03/19 05:43:00;;;;;;;17.05;10.27;;;;;;;-2.12;60.71;103223.50;4999603;28;20466;-78
2022/03/19 05:45:26;;;;;;;16.25;10.55;;;;;;;-2.35;61.42;103226.41;5010795;28;20033;-79
2022/03/19 05:47:52;;;;;;;16.88;11.65;;;;;;;-2.09;61.44;103211.69;5011533;28;20466;-79
2022/03/19 05:50:18;;;;;;;15.32;10.50;;;;;;;-1.82;60.22;103224.66;5010968;28;20410;-78
2022/03/19 05:52:46;;;;;;;23.65;11.35;;;;;;;-1.57;59.62;103235.63;5017483;28;20092;-77
2022/03/19 05:55:13;;;;;;;19.83;11.98;;;;;;;-2.00;60.14;103221.22;5010513;28;20048;-78
2022/03/19 05:57:53;;;;;;;21.00;13.13;;;;;;;-1.87;60.92;103218.16;4999129;28;20486;-78
2022/03/19 06:00:19;;;;;;;24.77;13.63;;;;;;;-1.44;59.59;103229.03;5008909;28;20466;-78
2022/03/19 06:02:45;;;;;;;22.67;13.98;;;;;;;-1.39;59.50;103231.28;5011584;28;20108;-78
2022/03/19 06:05:11;;;;;;;21.63;14.02;;;;;;;-1.00;57.45;103238.34;5011562;28;20045;-80
2022/03/19 06:07:36;;;;;;;19.77;11.15;;;;;;;-0.95;55.74;103213.88;5010388;28;20065;-81
2022/03/19 06:10:03;;;;;;;29.80;12.73;;;;;;;-0.75;55.41;103222.53;5010820;28;20061;-80
2022/03/19 06:12:29;;;;;;;18.00;10.80;;;;;;;-0.59;54.23;103222.25;5011582;28;20088;-80
2022/03/19 06:14:55;;;;;;;18.90;11.38;;;;;;;-0.50;53.72;103226.56;5011892;28;20038;-77
2022/03/19 06:17:27;;;;;;;16.30;10.88;;;;;;;-0.32;53.52;103232.47;5011719;28;20053;-78
2022/03/19 06:19:54;;;;;;;18.20;10.98;;;;;;;-0.37;53.18;103232.84;5009485;28;20034;-79
2022/03/19 06:22:20;;;;;;;17.35;10.93;;;;;;;-0.46;52.83;103227.75;5010587;28;20038;-79
2022/03/19 06:24:46;;;;;;;15.98;11.57;;;;;;;-0.07;52.49;103240.75;5003367;28;20061;-80
2022/03/19 06:27:18;;;;;;;16.40;11.30;;;;;;;0.01;52.15;103235.34;5005289;28;20026;-80
2022/03/19 06:29:43;;;;;;;20.77;11.00;;;;;;;-0.04;52.01;103230.69;5010018;28;20113;-79
2022/03/19 06:32:21;;;;;;;16.23;10.55;;;;;;;0.15;51.46;103229.72;5010873;28;20134;-78
2022/03/19 06:34:48;;;;;;;24.77;12.02;;;;;;;0.01;51.51;103245.69;5009846;28;20505;-78
2022/03/19 06:37:19;;;;;;;20.17;11.20;;;;;;;-0.20;51.98;103234.34;5009872;28;20394;-80
2022/03/19 06:39:45;;;;;;;19.98;13.05;;;;;;;-0.16;51.65;103232.19;5008297;28;20038;-76
2022/03/19 06:42:10;;;;;;;23.70;11.27;;;;;;;0.33;50.70;103235.59;5009377;28;20564;-79
2022/03/19 06:44:38;;;;;;;17.10;11.98;;;;;;;0.61;49.79;103244.97;5009426;28;20037;-78
2022/03/19 06:47:05;;;;;;;18.27;12.75;;;;;;;0.84;48.90;103244.34;5009122;28;20120;-79
2022/03/19 06:49:31;;;;;;;16.63;14.23;;;;;;;0.50;48.82;103252.56;5007754;28;20133;-79
2022/03/19 06:51:56;;;;;;;18.40;13.80;;;;;;;0.65;48.72;103242.63;5007997;28;20600;-79
2022/03/19 06:54:21;;;;;;;24.38;13.65;;;;;;;0.23;49.46;103240.72;5006734;28;20030;-78
2022/03/19 06:56:49;;;;;;;16.75;12.15;;;;;;;0.03;49.55;103241.56;5008202;28;20057;-79
2022/03/19 06:59:14;;;;;;;22.65;11.50;;;;;;;0.47;49.02;103247.09;5008114;28;20034;-78
2022/03/19 07:01:40;;;;;;;15.48;10.98;;;;;;;0.61;48.47;103244.97;5007811;28;20034;-78
2022/03/19 07:04:05;;;;;;;18.35;10.90;;;;;;;0.78;48.15;103251.56;5008306;28;20096;-78
2022/03/19 07:06:31;;;;;;;19.30;13.65;;;;;;;0.30;48.80;103248.22;5005847;28;20061;-77
2022/03/19 07:08:57;;;;;;;16.75;11.82;;;;;;;0.62;48.40;103244.16;5006502;28;20454;-77
2022/03/19 07:11:22;;;;;;;17.63;12.05;;;;;;;0.97;48.12;103261.78;5008941;28;20040;-80
2022/03/19 07:13:48;;;;;;;16.33;10.45;;;;;;;1.09;47.70;103264.50;5007138;28;20049;-75
2022/03/19 07:16:15;;;;;;;25.65;13.20;;;;;;;1.04;47.54;103263.22;5004574;28;20445;-76
2022/03/19 07:18:42;;;;;;;13.05;8.27;;;;;;;0.77;48.14;103259.19;5009256;28;20034;-77
2022/03/19 07:21:10;;;;;;;21.35;9.45;;;;;;;0.46;48.38;103277.19;5004372;28;20030;-77
2022/03/19 07:23:36;;;;;;;18.10;9.73;;;;;;;0.49;48.53;103263.66;5008707;28;20034;-76
2022/03/19 07:26:02;;;;;;;13.07;9.50;;;;;;;0.39;49.34;103255.09;5006347;28;20165;-77
2022/03/19 07:28:28;;;;;;;19.20;8.57;;;;;;;0.90;47.69;103256.88;5010622;28;20129;-78
2022/03/19 07:30:55;;;;;;;14.38;10.13;;;;;;;0.34;49.59;103277.03;5008141;28;20038;-75
2022/03/19 07:33:20;;;;;;;12.88;7.90;;;;;;;0.41;48.62;103260.41;5008456;28;20029;-77
2022/03/19 07:35:46;;;;;;;10.35;6.97;;;;;;;0.46;48.33;103266.88;5008135;28;20057;-76
2022/03/19 07:38:11;;;;;;;10.07;6.97;;;;;;;0.71;48.65;103266.44;5008170;28;20053;-76
2022/03/19 07:43:25;;;;;;;19.65;7.13;;;;;;;0.56;48.15;103277.25;5004954;28;20037;-76
2022/03/19 07:45:52;;;;;;;10.82;7.05;;;;;;;0.59;48.09;103272.34;5008207;28;20045;-76
2022/03/19 07:48:18;;;;;;;12.68;6.25;;;;;;;0.50;48.51;103266.38;5006242;28;20041;-77
2022/03/19 07:50:44;;;;;;;11.75;6.22;;;;;;;0.96;48.14;103270.34;4986376;28;20038;-76
2022/03/19 07:53:10;;;;;;;7.47;6.18;;;;;;;0.46;48.21;103253.06;4992223;28;20057;-75
2022/03/19 07:55:35;;;;;;;16.25;7.18;;;;;;;0.27;48.20;103264.34;5000789;28;20096;-76
2022/03/19 07:58:01;;;;;;;12.63;7.65;;;;;;;0.63;48.33;103265.75;4994216;28;20371;-76
2022/03/19 08:00:27;;;;;;;10.77;6.90;;;;;;;0.63;47.66;103243.41;5004253;28;20040;-75
2022/03/19 08:02:53;;;;;;;9.05;6.90;;;;;;;0.71;47.02;103253.50;4998813;28;20030;-75
2022/03/19 08:05:18;;;;;;;16.25;7.00;;;;;;;1.34;46.65;103270.06;5001874;28;20061;-75
2022/03/19 08:07:44;;;;;;;16.98;6.72;;;;;;;0.82;47.42;103266.56;5005484;28;20473;-75
2022/03/19 08:10:10;;;;;;;9.13;6.85;;;;;;;1.41;46.47;103271.50;5013230;28;20049;-76
2022/03/19 08:12:37;;;;;;;13.52;7.20;;;;;;;0.90;46.64;103261.16;5032349;28;20056;-77
2022/03/19 08:15:04;;;;;;;8.77;7.07;;;;;;;0.78;47.19;103281.69;5026265;28;20048;-77
2022/03/19 08:17:30;;;;;;;13.70;7.55;;;;;;;1.21;46.20;103275.88;5008015;28;20474;-77
2022/03/19 08:20:11;;;;;;;9.27;5.68;;;;;;;1.71;44.43;103275.72;5009322;28;20041;-77
2022/03/19 08:22:38;;;;;;;17.05;6.40;;;;;;;1.19;45.73;103271.34;5012390;28;20382;-77
2022/03/19 08:25:04;;;;;;;11.73;6.50;;;;;;;1.12;46.51;103281.97;5010480;28;20478;-77
2022/03/19 08:27:30;;;;;;;11.23;6.25;;;;;;;0.81;46.14;103259.56;5007522;28;20056;-78
2022/03/19 08:29:56;;;;;;;9.88;6.35;;;;;;;0.97;46.01;103272.13;5009806;28;20481;-76
2022/03/19 08:36:47;;;;;;;8.32;5.10;;;;;;;1.00;45.91;103263.72;5003638;28;20112;-77
2022/03/19 08:42:38;;;;;;;21.45;7.45;;;;;;;0.89;46.03;103269.66;4984943;28;20096;-79
2022/03/19 08:45:05;;;;;;;10.02;5.63;;;;;;;0.58;46.54;103262.75;4998738;28;20054;-79
2022/03/19 08:47:30;;;;;;;14.68;6.75;;;;;;;0.81;46.15;103259.56;4999889;28;20042;-78
2022/03/19 08:49:55;;;;;;;14.85;5.03;;;;;;;0.61;46.41;103285.41;5005643;28;20028;-76
2022/03/19 08:52:21;;;;;;;9.35;5.22;;;;;;;0.63;46.56;103261.50;5007223;28;20018;-79
2022/03/19 08:54:47;;;;;;;12.63;6.47;;;;;;;0.91;46.59;103268.13;5006023;28;20046;-78
2022/03/19 08:57:14;;;;;;;10.32;6.18;;;;;;;0.61;46.62;103268.22;5006381;28;20081;-79
2022/03/19 08:59:39;;;;;;;10.52;6.75;;;;;;;1.08;46.05;103259.19;5006145;28;20069;-77
2022/03/19 09:02:05;;;;;;;9.63;6.28;;;;;;;1.50;45.44;103250.63;5007373;28;20466;-77
2022/03/19 09:04:32;;;;;;;7.22;4.85;;;;;;;1.59;44.89;103248.81;4998237;28;20051;-75
2022/03/19 09:06:57;;;;;;;8.23;5.40;;;;;;;1.51;45.36;103267.97;5002928;28;20469;-77
2022/03/19 09:09:23;;;;;;;10.48;6.32;;;;;;;1.20;45.67;103234.41;5009845;28;20038;-77
2022/03/19 09:11:48;;;;;;;8.65;5.93;;;;;;;1.08;46.13;103260.13;5006840;28;20485;-79
2022/03/19 09:14:15;;;;;;;8.05;4.68;;;;;;;0.73;46.49;103249.38;5005440;28;20042;-77
2022/03/19 09:16:41;;;;;;;17.58;6.03;;;;;;;0.87;46.33;103247.94;5011054;28;20042;-76
2022/03/19 09:19:06;;;;;;;13.82;8.93;;;;;;;0.78;46.92;103261.00;5005627;28;20041;-77
2022/03/19 09:21:32;;;;;;;8.43;5.20;;;;;;;0.87;46.71;103264.38;5022155;28;20033;-75
2022/03/19 09:23:58;;;;;;;9.32;5.80;;;;;;;1.22;45.49;103254.44;5027353;28;20044;-76
2022/03/19 09:26:24;;;;;;;8.45;5.70;;;;;;;1.54;44.23;103252.69;5029090;28;20042;-77
2022/03/19 09:28:51;;;;;;;14.18;7.25;;;;;;;1.98;43.44;103253.75;5017466;28;20072;-75
2022/03/19 09:31:17;;;;;;;9.93;5.72;;;;;;;2.50;42.48;103262.16;4993012;28;20081;-76
2022/03/19 09:33:46;;;;;;;18.27;5.25;;;;;;;1.41;43.78;103245.63;5009962;28;20064;-76
2022/03/19 09:36:14;;;;;;;11.05;6.13;;;;;;;1.79;43.72;103237.50;4996445;28;20182;-75
2022/03/19 09:38:46;;;;;;;15.48;6.45;;;;;;;1.40;43.52;103261.91;4997147;28;20535;-74
2022/03/19 09:41:12;;;;;;;18.98;10.15;;;;;;;1.20;43.93;103255.97;4992178;28;20045;-76
2022/03/19 09:43:37;;;;;;;7.13;3.83;;;;;;;1.27;43.78;103257.41;4994151;28;20031;-75
2022/03/19 09:46:04;;;;;;;9.13;4.90;;;;;;;1.32;43.89;103245.75;5001319;28;20026;-75
2022/03/19 09:48:29;;;;;;;17.10;5.40;;;;;;;1.11;44.43;103233.63;5010397;28;20029;-77
2022/03/19 09:50:56;;;;;;;10.23;5.82;;;;;;;1.48;43.37;103232.41;5000759;28;20054;-76
2022/03/19 09:53:36;;;;;;;11.65;6.00;;;;;;;1.24;44.61;103228.69;5010966;28;20192;-77
2022/03/19 09:56:16;;;;;;;14.23;7.25;;;;;;;1.24;44.39;103226.09;5012524;28;21633;-77
2022/03/19 09:58:41;;;;;;;7.90;4.40;;;;;;;1.65;43.67;103236.38;4999220;28;20080;-75
2022/03/19 10:01:07;;;;;;;12.13;7.85;;;;;;;1.10;44.38;103226.63;5011625;28;20405;-75
2022/03/19 10:03:38;;;;;;;8.65;5.47;;;;;;;1.26;44.01;103209.94;5008239;28;20505;-76
2022/03/19 10:09:01;;;;;;;6.95;4.10;;;;;;;2.03;42.47;103213.56;5005916;28;20052;-77
2022/03/19 10:11:31;;;;;;;10.45;5.13;;;;;;;2.11;42.39;103220.28;5010548;28;20437;-77
2022/03/19 10:13:58;;;;;;;10.52;4.63;;;;;;;2.28;41.36;103221.63;4998342;28;20050;-75
2022/03/19 10:16:31;;;;;;;7.70;5.03;;;;;;;1.55;43.09;103220.88;4999375;28;20026;-78
2022/03/19 10:19:04;;;;;;;12.63;4.60;;;;;;;1.63;43.07;103215.53;5008427;28;20517;-77
2022/03/19 10:21:34;;;;;;;10.35;3.75;;;;;;;2.41;42.03;103228.69;4999804;28;20455;-76
2022/03/19 10:24:01;;;;;;;14.65;4.72;;;;;;;1.87;41.94;103229.59;4986179;28;20030;-77
2022/03/19 10:26:30;;;;;;;8.95;4.55;;;;;;;1.73;42.20;103209.41;5007169;28;20096;-75
2022/03/19 10:32:30;;;;;;;11.73;5.00;;;;;;;2.46;42.06;103216.09;5015118;28;20080;-77
2022/03/19 10:34:55;;;;;;;9.70;5.00;;;;;;;3.49;40.71;103198.88;5008573;28;20068;-76
2022/03/19 10:37:39;;;;;;;9.52;5.63;;;;;;;4.21;39.15;103185.91;5004757;28;20381;-78
2022/03/19 10:40:07;;;;;;;9.25;4.63;;;;;;;2.06;40.52;103200.91;5007090;28;20663;-75
2022/03/19 10:42:40;;;;;;;8.60;5.80;;;;;;;2.12;41.03;103187.50;5009630;28;20053;-76
2022/03/19 10:45:14;;;;;;;8.57;4.03;;;;;;;2.26;41.01;103191.19;5012877;28;20577;-76
2022/03/19 10:47:42;;;;;;;6.97;4.20;;;;;;;2.36;41.74;103198.91;5003478;28;20042;-76
2022/03/19 10:50:10;;;;;;;16.30;8.43;;;;;;;2.50;41.55;103197.38;5008982;28;20144;-76
2022/03/19 10:52:36;;;;;;;17.33;6.15;;;;;;;1.86;42.27;103195.81;5012558;28;20037;-76
2022/03/19 10:55:04;;;;;;;11.15;5.10;;;;;;;2.51;41.86;103197.50;5013789;28;20030;-75
2022/03/19 10:57:31;;;;;;;10.20;4.00;;;;;;;2.59;41.01;103199.78;5018083;28;20037;-76
2022/03/19 10:59:56;;;;;;;9.07;5.50;;;;;;;2.70;40.45;103170.44;5002949;28;20044;-83
2022/03/19 11:02:26;;;;;;;19.15;6.25;;;;;;;2.88;40.73;103182.22;5004322;28;20120;-81
2022/03/19 11:04:52;;;;;;;7.00;4.70;;;;;;;2.77;41.32;103166.63;5002748;28;20124;-82
2022/03/19 11:07:22;;;;;;;8.98;5.43;;;;;;;2.62;40.90;103174.09;5007272;28;20129;-82
2022/03/19 11:09:51;;;;;;;10.07;5.28;;;;;;;3.03;41.17;103176.38;5009246;28;20524;-78
2022/03/19 11:12:21;;;;;;;6.75;4.47;;;;;;;3.55;40.12;103162.94;5007162;28;20030;-84
2022/03/19 11:18:08;;;;;;;7.55;4.72;;;;;;;2.42;41.62;103133.72;5009050;28;20099;-80
2022/03/19 11:20:35;;;;;;;12.45;5.35;;;;;;;2.95;41.23;103158.53;5008186;28;20042;-73
2022/03/19 11:23:04;;;;;;;8.07;3.50;;;;;;;2.78;41.31;103139.88;5009105;28;20042;-77
2022/03/19 11:25:37;;;;;;;19.40;6.88;;;;;;;2.68;41.83;103152.16;5007416;28;20048;-76
2022/03/19 11:28:07;;;;;;;12.80;4.38;;;;;;;2.42;41.59;103133.72;5006853;28;20056;-78
2022/03/19 11:30:35;;;;;;;10.82;5.35;;;;;;;2.29;41.51;103132.78;5008112;28;20397;-78
2022/03/19 11:33:09;;;;;;;9.20;5.53;;;;;;;2.38;40.95;103144.63;5009662;28;20077;-76
2022/03/19 11:35:40;;;;;;;16.65;4.35;;;;;;;3.85;39.46;103157.28;5002059;28;20061;-74
2022/03/19 11:38:13;;;;;;;7.10;4.03;;;;;;;4.33;38.44;103140.75;5008578;28;20137;-74
2022/03/19 11:40:47;;;;;;;7.60;4.70;;;;;;;4.44;38.41;103145.00;5005072;28;20082;-76
2022/03/19 11:43:17;;;;;;;8.73;5.22;;;;;;;2.96;40.20;103142.19;5008785;28;20041;-74
2022/03/19 11:46:21;;;;;;;8.85;6.00;;;;;;;3.73;39.04;103152.13;5010885;28;20458;-76
2022/03/19 11:48:47;;;;;;;10.93;5.18;;;;;;;3.12;40.29;103146.81;4964436;28;20622;-75